»·PEaware :: N2114H KVGT-KOTH

N2114H :: KVGT-KOTH

FLIGHT INFORMATION

Flight Status: Arrived
Operator: Privately registered:
United States
More flights under this callsign
Pilot: John H. (10732)
Aircraft: BRITISH AERO BAe-125-700/800
(H25B)
More flights by this aircraft type
Origin: KVGT North Las Vegas
United States
Destination: KOTH North Bend Mun
United States
More flights between these airports :: More routes between these airports
Route: +NOTWN5 LAS BTY J92 LMT OED RBG
File this flight plan on PilotEdge
Remarks:
Altitude:
(Current/Filed)
40,000ft
Speed:
(Current/Filed)
400kts
Departed: 23-May-19 06:05 PM
Arrived: 23-May-19 08:00 PM
Distance/Time
Traveled:
600nm/1:55
Distance/Time
To Go:
Arrived

Flight Plot

Page will automatically refresh every two minutes.

Flight plan parsing failed; only flown route is shown


Map Options




Map Legend


Flown Route
Filed Route
Departure Airport
Arrival Airport
Navaid (VOR, NDB)
Fix

Horizontal Profiles

Position Reports

Time Latitude Longitude Heading Altitude Ground
Speed
23-May-19 17:51 36.209761 -115.198995 230 2210ft 0kts
23-May-19 17:52 36.209761 -115.198995 230 2210ft 0kts
23-May-19 17:53 36.209761 -115.198995 230 2210ft 0kts
23-May-19 17:54 36.209761 -115.198995 230 2210ft 0kts
23-May-19 17:55 36.209761 -115.198995 230 2210ft 0kts
23-May-19 17:56 36.209761 -115.198995 230 2210ft 0kts
23-May-19 17:57 36.209761 -115.198995 230 2210ft 0kts
23-May-19 17:58 36.209761 -115.198995 230 2210ft 0kts
23-May-19 17:59 36.209761 -115.198995 230 2210ft 0kts
23-May-19 18:00 36.210717 -115.199385 315 2210ft 3kts
23-May-19 18:01 36.211801 -115.200708 315 2210ft 11kts
23-May-19 18:02 36.213989 -115.203228 20 2210ft 5kts
23-May-19 18:03 36.214097 -115.203172 36 2210ft 0kts
23-May-19 18:04 36.211694 -115.198772 135 2210ft 90kts
23-May-19 18:05 36.183920 -115.180422 202 3912ft 110kts
23-May-19 18:06 36.177066 -115.216647 290 4816ft 143kts
23-May-19 18:07 36.205288 -115.257667 321 6930ft 180kts
23-May-19 18:08 36.261444 -115.291349 2 8143ft 279kts
23-May-19 18:09 36.294446 -115.214689 122 10755ft 297kts
23-May-19 18:10 36.221967 -115.200077 200 13675ft 297kts
23-May-19 18:11 36.137281 -115.196343 166 16675ft 322kts
23-May-19 18:12 36.081129 -115.239907 302 19538ft 328kts
23-May-19 18:13 36.149425 -115.318987 306 22598ft 343kts
23-May-19 18:14 36.200122 -115.420136 298 25274ft 350kts
23-May-19 18:15 36.248998 -115.526078 298 27511ft 357kts
23-May-19 18:16 36.298732 -115.634386 298 29346ft 365kts
23-May-19 18:17 36.349460 -115.745242 299 30920ft 373kts
23-May-19 18:18 36.401206 -115.858727 298 32313ft 382kts
23-May-19 18:19 36.454065 -115.975044 298 33617ft 390kts
23-May-19 18:20 36.507624 -116.093311 298 34725ft 397kts
23-May-19 18:21 36.562192 -116.214240 298 35626ft 404kts
23-May-19 18:22 36.617239 -116.336679 298 36443ft 407kts
23-May-19 18:23 36.672670 -116.460431 298 37046ft 412kts
23-May-19 18:24 36.728558 -116.585680 299 37609ft 414kts
23-May-19 18:25 36.784789 -116.712178 300 38030ft 418kts
23-May-19 18:26 36.867386 -116.810634 328 38338ft 420kts
23-May-19 18:27 36.966754 -116.888098 326 38668ft 422kts
23-May-19 18:28 37.055575 -116.961576 326 39399ft 413kts
23-May-19 18:29 37.150513 -117.041281 326 39899ft 410kts
23-May-19 18:30 37.246247 -117.122103 326 39942ft 418kts
23-May-19 18:31 37.342995 -117.204082 327 39962ft 422kts
23-May-19 18:32 37.440863 -117.287274 327 39963ft 424kts
23-May-19 18:33 37.538541 -117.370568 327 39968ft 426kts
23-May-19 18:34 37.636837 -117.454660 327 39973ft 426kts
23-May-19 18:35 37.735116 -117.539011 327 39974ft 427kts
23-May-19 18:36 37.833324 -117.623579 327 39979ft 427kts
23-May-19 18:37 37.931404 -117.708315 327 39987ft 427kts
23-May-19 18:38 38.026669 -117.799088 319 39992ft 430kts
23-May-19 18:39 38.113848 -117.903292 319 39993ft 430kts
23-May-19 18:40 38.200686 -118.007715 319 39998ft 430kts
23-May-19 18:41 38.280041 -118.103530 319 39997ft 427kts
23-May-19 18:42 38.366397 -118.208143 319 39997ft 428kts
23-May-19 18:43 38.452406 -118.312706 319 39998ft 428kts
23-May-19 18:44 38.537484 -118.416584 319 39986ft 396kts
23-May-19 18:45 38.616291 -118.512955 319 39995ft 398kts
23-May-19 18:46 38.697301 -118.612402 319 39990ft 409kts
23-May-19 18:47 38.780425 -118.714819 319 39930ft 419kts
23-May-19 18:48 38.864507 -118.818786 319 39985ft 422kts
23-May-19 18:49 38.949396 -118.924109 319 39980ft 426kts
23-May-19 18:50 39.034842 -119.030487 319 39980ft 428kts
23-May-19 18:51 39.120149 -119.137065 318 39981ft 427kts
23-May-19 18:52 39.205411 -119.243955 315 39985ft 427kts
23-May-19 18:53 39.290357 -119.350864 315 39992ft 425kts
23-May-19 18:55 39.367442 -119.448227 315 39990ft 424kts
23-May-19 18:56 39.451712 -119.555038 312 39988ft 424kts
23-May-19 18:57 39.536706 -119.660183 326 39982ft 422kts
23-May-19 18:58 39.639233 -119.737581 324 39992ft 431kts
23-May-19 18:59 39.742949 -119.816392 334 40060ft 437kts
23-May-19 19:00 39.847080 -119.895663 335 39990ft 443kts
23-May-19 19:01 39.955533 -119.978536 333 40266ft 440kts
23-May-19 19:02 40.055260 -120.055048 332 41957ft 400kts
23-May-19 19:03 40.148460 -120.126715 333 42948ft 381kts
23-May-19 19:04 40.240717 -120.197855 332 43007ft 386kts
23-May-19 19:05 40.333665 -120.269801 333 42993ft 392kts
23-May-19 19:06 40.428259 -120.343273 333 42992ft 396kts
23-May-19 19:07 40.523536 -120.417523 333 42989ft 399kts
23-May-19 19:08 40.619262 -120.492375 333 42988ft 402kts
23-May-19 19:09 40.707377 -120.561499 333 42987ft 404kts
23-May-19 19:10 40.803925 -120.637513 333 42696ft 393kts
23-May-19 19:11 40.891655 -120.706876 334 41211ft 346kts
23-May-19 19:12 40.970325 -120.769133 334 39703ft 323kts
23-May-19 19:13 41.050900 -120.832901 333 38211ft 377kts
23-May-19 19:14 41.144552 -120.907619 333 36425ft 390kts
23-May-19 19:15 41.236557 -120.981224 333 34626ft 382kts
23-May-19 19:15 41.311947 -121.041673 333 33130ft 378kts
23-May-19 19:16 41.402099 -121.114150 332 31330ft 383kts
23-May-19 19:18 41.511023 -121.202056 332 29236ft 396kts
23-May-19 19:18 41.590909 -121.266747 332 27734ft 409kts
23-May-19 19:19 41.672539 -121.368321 313 25937ft 388kts
23-May-19 19:21 41.746628 -121.490791 315 23827ft 341kts
23-May-19 19:21 41.796183 -121.569709 315 22307ft 325kts
23-May-19 19:22 41.856121 -121.664342 315 22021ft 379kts
23-May-19 19:23 41.923431 -121.771142 314 22016ft 457kts
23-May-19 19:24 42.001049 -121.895232 314 22000ft 411kts
23-May-19 19:25 42.073650 -122.011374 314 21992ft 401kts
23-May-19 19:26 42.144216 -122.124644 314 21992ft 395kts
23-May-19 19:27 42.214798 -122.238454 314 22006ft 391kts
23-May-19 19:28 42.284364 -122.351070 314 22003ft 388kts
23-May-19 19:29 42.350603 -122.458789 315 21960ft 352kts
23-May-19 19:30 42.408970 -122.556274 310 20593ft 324kts
23-May-19 19:31 42.455859 -122.658532 307 18997ft 314kts
23-May-19 19:32 42.501679 -122.757672 306 17397ft 307kts
23-May-19 19:33 42.546785 -122.854904 307 15803ft 304kts
23-May-19 19:34 42.592316 -122.953017 305 14224ft 317kts
23-May-19 19:35 42.638647 -123.053327 305 12837ft 310kts
23-May-19 19:36 42.684076 -123.151977 305 11336ft 306kts
23-May-19 19:37 42.729203 -123.250278 305 9836ft 305kts
23-May-19 19:38 42.773945 -123.348058 304 8337ft 303kts
23-May-19 19:39 42.814394 -123.436879 305 8012ft 252kts
23-May-19 19:40 42.851374 -123.517997 305 8015ft 267kts
23-May-19 19:41 42.891641 -123.606798 305 8018ft 282kts
23-May-19 19:42 42.933546 -123.699509 304 8021ft 291kts
23-May-19 19:43 42.976412 -123.794654 304 8021ft 297kts
23-May-19 19:44 43.018550 -123.888510 304 8019ft 280kts
23-May-19 19:45 43.058117 -123.976857 304 7743ft 264kts
23-May-19 19:46 43.094125 -124.057453 298 6051ft 239kts
23-May-19 19:47 43.128733 -124.135201 302 3852ft 238kts
23-May-19 19:48 43.150340 -124.209847 278 3012ft 171kts
23-May-19 19:49 43.160034 -124.273473 288 3034ft 179kts
23-May-19 19:50 43.179233 -124.337907 299 3030ft 184kts
23-May-19 19:51 43.207218 -124.396610 309 3029ft 184kts
23-May-19 19:52 43.242939 -124.447029 320 3030ft 184kts
23-May-19 19:53 43.284534 -124.486807 331 3059ft 181kts
23-May-19 19:54 43.327554 -124.472622 57 3058ft 178kts
23-May-19 19:55 43.352926 -124.410983 58 2138ft 190kts
23-May-19 19:56 43.378869 -124.347947 58 1303ft 184kts
23-May-19 19:57 43.400377 -124.295736 57 400ft 143kts
23-May-19 19:58 43.416404 -124.256428 58 22ft 64kts
23-May-19 19:59 43.417632 -124.251632 150 22ft 0kts
23-May-19 20:00 43.417993 -124.249875 64 22ft 12kts
23-May-19 20:01 43.417676 -124.246808 225 22ft 12kts
23-May-19 20:02 43.416920 -124.247872 239 22ft 0kts
23-May-19 20:03 43.416920 -124.247872 239 22ft 0kts
23-May-19 20:04 43.416920 -124.247872 239 22ft 0kts

Navigation Log

Ident Type
Flight plan parsing failed, navigation log unavailable